sensor_id;sensor_type;location;lat;lon;timestamp;P1;durP1;ratioP1;P2;durP2;ratioP2
62123;SDS011;48110;47.532;19.078;2022-07-29T00:00:10;3.05;;;2.40;;
62123;SDS011;48110;47.532;19.078;2022-07-29T00:03:15;3.33;;;2.37;;
62123;SDS011;48110;47.532;19.078;2022-07-29T00:06:18;3.17;;;2.50;;
62123;SDS011;48110;47.532;19.078;2022-07-29T00:09:21;5.10;;;2.40;;
62123;SDS011;48110;47.532;19.078;2022-07-29T00:12:24;4.50;;;2.30;;
62123;SDS011;48110;47.532;19.078;2022-07-29T00:15:28;5.05;;;2.35;;
62123;SDS011;48110;47.532;19.078;2022-07-29T00:18:31;7.15;;;2.53;;
62123;SDS011;48110;47.532;19.078;2022-07-29T00:21:34;7.65;;;2.67;;
62123;SDS011;48110;47.532;19.078;2022-07-29T00:24:37;4.80;;;2.60;;
62123;SDS011;48110;47.532;19.078;2022-07-29T00:27:40;6.32;;;2.42;;
62123;SDS011;48110;47.532;19.078;2022-07-29T00:30:42;2.75;;;2.28;;
62123;SDS011;48110;47.532;19.078;2022-07-29T00:33:45;6.95;;;2.67;;
62123;SDS011;48110;47.532;19.078;2022-07-29T00:36:48;3.47;;;2.33;;
62123;SDS011;48110;47.532;19.078;2022-07-29T00:39:50;3.75;;;2.30;;
62123;SDS011;48110;47.532;19.078;2022-07-29T00:42:53;6.37;;;2.30;;
62123;SDS011;48110;47.532;19.078;2022-07-29T00:45:56;3.62;;;2.60;;
62123;SDS011;48110;47.532;19.078;2022-07-29T00:48:58;7.12;;;2.40;;
62123;SDS011;48110;47.532;19.078;2022-07-29T00:52:04;3.72;;;2.58;;
62123;SDS011;48110;47.532;19.078;2022-07-29T00:55:09;3.08;;;2.37;;
62123;SDS011;48110;47.532;19.078;2022-07-29T00:58:14;5.47;;;2.78;;
62123;SDS011;48110;47.532;19.078;2022-07-29T01:01:17;3.47;;;2.50;;
62123;SDS011;48110;47.532;19.078;2022-07-29T01:04:20;8.48;;;2.58;;
62123;SDS011;48110;47.532;19.078;2022-07-29T01:07:24;5.25;;;2.58;;
62123;SDS011;48110;47.532;19.078;2022-07-29T01:10:28;3.53;;;2.25;;
62123;SDS011;48110;47.532;19.078;2022-07-29T01:13:31;3.72;;;2.20;;
62123;SDS011;48110;47.532;19.078;2022-07-29T01:16:40;5.68;;;2.75;;
62123;SDS011;48110;47.532;19.078;2022-07-29T01:29:58;3.05;;;2.25;;
62123;SDS011;48110;47.532;19.078;2022-07-29T01:33:03;5.05;;;2.53;;
62123;SDS011;48110;47.532;19.078;2022-07-29T01:36:11;3.50;;;2.50;;
62123;SDS011;48110;47.532;19.078;2022-07-29T01:39:23;5.55;;;2.30;;
62123;SDS011;48110;47.532;19.078;2022-07-29T01:42:35;6.05;;;3.03;;
62123;SDS011;48110;47.532;19.078;2022-07-29T01:45:42;3.15;;;2.50;;
62123;SDS011;48110;47.532;19.078;2022-07-29T01:48:47;5.47;;;2.87;;
62123;SDS011;48110;47.532;19.078;2022-07-29T01:52:00;3.97;;;2.37;;
62123;SDS011;48110;47.532;19.078;2022-07-29T01:55:09;5.85;;;2.60;;
62123;SDS011;48110;47.532;19.078;2022-07-29T01:58:16;6.62;;;2.67;;
62123;SDS011;48110;47.532;19.078;2022-07-29T02:01:21;7.05;;;2.60;;
62123;SDS011;48110;47.532;19.078;2022-07-29T02:04:27;4.15;;;2.60;;
62123;SDS011;48110;47.532;19.078;2022-07-29T02:07:31;6.28;;;2.85;;
62123;SDS011;48110;47.532;19.078;2022-07-29T02:10:36;5.60;;;2.75;;
62123;SDS011;48110;47.532;19.078;2022-07-29T02:13:41;4.20;;;2.70;;
62123;SDS011;48110;47.532;19.078;2022-07-29T02:16:47;4.00;;;2.72;;
62123;SDS011;48110;47.532;19.078;2022-07-29T02:19:53;6.32;;;2.92;;
62123;SDS011;48110;47.532;19.078;2022-07-29T02:22:59;11.77;;;3.30;;
62123;SDS011;48110;47.532;19.078;2022-07-29T02:26:06;3.12;;;2.58;;
62123;SDS011;48110;47.532;19.078;2022-07-29T02:29:10;3.50;;;2.60;;
62123;SDS011;48110;47.532;19.078;2022-07-29T02:32:17;3.70;;;2.50;;
62123;SDS011;48110;47.532;19.078;2022-07-29T02:35:21;4.53;;;2.78;;
62123;SDS011;48110;47.532;19.078;2022-07-29T02:38:25;4.20;;;2.53;;
62123;SDS011;48110;47.532;19.078;2022-07-29T02:41:52;3.40;;;2.67;;
62123;SDS011;48110;47.532;19.078;2022-07-29T02:45:00;3.22;;;2.70;;
62123;SDS011;48110;47.532;19.078;2022-07-29T02:48:05;4.62;;;2.50;;
62123;SDS011;48110;47.532;19.078;2022-07-29T02:51:13;4.37;;;2.67;;
62123;SDS011;48110;47.532;19.078;2022-07-29T02:54:42;3.28;;;2.67;;
62123;SDS011;48110;47.532;19.078;2022-07-29T02:57:51;5.37;;;2.58;;
62123;SDS011;48110;47.532;19.078;2022-07-29T03:01:11;3.55;;;2.45;;
62123;SDS011;48110;47.532;19.078;2022-07-29T03:04:23;4.80;;;2.70;;
62123;SDS011;48110;47.532;19.078;2022-07-29T03:07:28;4.00;;;2.50;;
62123;SDS011;48110;47.532;19.078;2022-07-29T03:10:32;3.45;;;2.47;;
62123;SDS011;48110;47.532;19.078;2022-07-29T03:13:36;5.97;;;2.65;;
62123;SDS011;48110;47.532;19.078;2022-07-29T03:16:39;5.55;;;2.87;;
62123;SDS011;48110;47.532;19.078;2022-07-29T03:19:43;4.05;;;2.72;;
62123;SDS011;48110;47.532;19.078;2022-07-29T03:22:46;5.22;;;3.00;;
62123;SDS011;48110;47.532;19.078;2022-07-29T03:25:51;3.97;;;2.83;;
62123;SDS011;48110;47.532;19.078;2022-07-29T03:28:55;4.45;;;2.72;;
62123;SDS011;48110;47.532;19.078;2022-07-29T03:31:58;5.80;;;2.80;;
62123;SDS011;48110;47.532;19.078;2022-07-29T03:35:01;5.53;;;2.90;;
62123;SDS011;48110;47.532;19.078;2022-07-29T03:38:04;5.35;;;3.05;;
62123;SDS011;48110;47.532;19.078;2022-07-29T03:41:07;4.45;;;3.00;;
62123;SDS011;48110;47.532;19.078;2022-07-29T03:44:13;6.05;;;3.17;;
62123;SDS011;48110;47.532;19.078;2022-07-29T03:47:19;6.50;;;2.83;;
62123;SDS011;48110;47.532;19.078;2022-07-29T03:50:45;3.03;;;2.72;;
62123;SDS011;48110;47.532;19.078;2022-07-29T03:53:48;4.78;;;2.75;;
62123;SDS011;48110;47.532;19.078;2022-07-29T03:56:51;3.65;;;2.70;;
62123;SDS011;48110;47.532;19.078;2022-07-29T03:59:55;4.37;;;2.90;;
62123;SDS011;48110;47.532;19.078;2022-07-29T04:02:59;4.32;;;2.97;;
62123;SDS011;48110;47.532;19.078;2022-07-29T04:06:03;6.57;;;3.20;;
62123;SDS011;48110;47.532;19.078;2022-07-29T04:09:10;4.30;;;2.90;;
62123;SDS011;48110;47.532;19.078;2022-07-29T04:12:13;3.35;;;2.50;;
62123;SDS011;48110;47.532;19.078;2022-07-29T04:15:15;5.50;;;3.00;;
62123;SDS011;48110;47.532;19.078;2022-07-29T04:18:18;8.25;;;2.70;;
62123;SDS011;48110;47.532;19.078;2022-07-29T04:21:21;2.97;;;2.67;;
62123;SDS011;48110;47.532;19.078;2022-07-29T04:24:24;6.55;;;3.00;;
62123;SDS011;48110;47.532;19.078;2022-07-29T04:27:26;5.47;;;3.10;;
62123;SDS011;48110;47.532;19.078;2022-07-29T04:30:30;5.22;;;3.25;;
62123;SDS011;48110;47.532;19.078;2022-07-29T04:33:35;5.12;;;3.00;;
62123;SDS011;48110;47.532;19.078;2022-07-29T04:36:38;5.45;;;3.25;;
62123;SDS011;48110;47.532;19.078;2022-07-29T04:39:40;8.30;;;3.25;;
62123;SDS011;48110;47.532;19.078;2022-07-29T04:42:43;5.30;;;3.12;;
62123;SDS011;48110;47.532;19.078;2022-07-29T04:45:49;3.75;;;2.90;;
62123;SDS011;48110;47.532;19.078;2022-07-29T04:48:52;6.10;;;2.97;;
62123;SDS011;48110;47.532;19.078;2022-07-29T04:51:54;3.87;;;3.00;;
62123;SDS011;48110;47.532;19.078;2022-07-29T04:54:57;4.40;;;3.22;;
62123;SDS011;48110;47.532;19.078;2022-07-29T04:58:00;8.32;;;2.70;;
62123;SDS011;48110;47.532;19.078;2022-07-29T05:01:03;5.22;;;3.30;;
62123;SDS011;48110;47.532;19.078;2022-07-29T05:04:06;6.62;;;3.40;;
62123;SDS011;48110;47.532;19.078;2022-07-29T05:07:09;6.62;;;3.03;;
62123;SDS011;48110;47.532;19.078;2022-07-29T05:10:12;6.78;;;3.37;;
62123;SDS011;48110;47.532;19.078;2022-07-29T05:13:14;5.00;;;2.97;;
62123;SDS011;48110;47.532;19.078;2022-07-29T05:16:18;2.95;;;2.60;;
62123;SDS011;48110;47.532;19.078;2022-07-29T05:19:21;4.15;;;2.90;;
62123;SDS011;48110;47.532;19.078;2022-07-29T05:22:23;6.05;;;3.10;;
62123;SDS011;48110;47.532;19.078;2022-07-29T05:25:27;4.75;;;3.08;;
62123;SDS011;48110;47.532;19.078;2022-07-29T05:28:45;6.07;;;3.20;;
62123;SDS011;48110;47.532;19.078;2022-07-29T05:31:48;5.12;;;2.80;;
62123;SDS011;48110;47.532;19.078;2022-07-29T05:34:50;6.60;;;3.15;;
62123;SDS011;48110;47.532;19.078;2022-07-29T05:37:53;3.70;;;3.03;;
62123;SDS011;48110;47.532;19.078;2022-07-29T05:40:56;5.55;;;2.97;;
62123;SDS011;48110;47.532;19.078;2022-07-29T05:44:01;8.32;;;3.20;;
62123;SDS011;48110;47.532;19.078;2022-07-29T05:47:04;6.97;;;3.00;;
62123;SDS011;48110;47.532;19.078;2022-07-29T05:50:08;4.90;;;3.22;;
62123;SDS011;48110;47.532;19.078;2022-07-29T05:53:12;3.65;;;3.12;;
62123;SDS011;48110;47.532;19.078;2022-07-29T05:59:24;5.55;;;3.10;;
62123;SDS011;48110;47.532;19.078;2022-07-29T06:02:31;5.37;;;3.28;;
62123;SDS011;48110;47.532;19.078;2022-07-29T06:05:34;5.95;;;3.20;;
62123;SDS011;48110;47.532;19.078;2022-07-29T06:08:37;4.37;;;3.08;;
62123;SDS011;48110;47.532;19.078;2022-07-29T06:11:40;8.23;;;3.45;;
62123;SDS011;48110;47.532;19.078;2022-07-29T06:14:43;6.03;;;3.28;;
62123;SDS011;48110;47.532;19.078;2022-07-29T06:17:46;4.15;;;2.75;;
62123;SDS011;48110;47.532;19.078;2022-07-29T06:21:06;6.00;;;3.10;;
62123;SDS011;48110;47.532;19.078;2022-07-29T06:24:11;4.47;;;3.00;;
62123;SDS011;48110;47.532;19.078;2022-07-29T06:27:15;5.87;;;2.80;;
62123;SDS011;48110;47.532;19.078;2022-07-29T06:30:18;17.12;;;3.15;;
62123;SDS011;48110;47.532;19.078;2022-07-29T06:33:21;7.95;;;3.15;;
62123;SDS011;48110;47.532;19.078;2022-07-29T06:36:24;6.85;;;2.95;;
62123;SDS011;48110;47.532;19.078;2022-07-29T06:39:26;10.52;;;3.17;;
62123;SDS011;48110;47.532;19.078;2022-07-29T06:42:30;5.43;;;2.90;;
62123;SDS011;48110;47.532;19.078;2022-07-29T06:45:35;5.00;;;2.83;;
62123;SDS011;48110;47.532;19.078;2022-07-29T06:48:39;5.60;;;2.65;;
62123;SDS011;48110;47.532;19.078;2022-07-29T06:51:42;4.72;;;2.65;;
62123;SDS011;48110;47.532;19.078;2022-07-29T06:54:45;7.95;;;2.85;;
62123;SDS011;48110;47.532;19.078;2022-07-29T06:57:50;7.28;;;2.75;;
62123;SDS011;48110;47.532;19.078;2022-07-29T07:00:53;8.70;;;3.20;;
62123;SDS011;48110;47.532;19.078;2022-07-29T07:03:57;6.65;;;3.17;;
62123;SDS011;48110;47.532;19.078;2022-07-29T07:07:00;6.05;;;2.80;;
62123;SDS011;48110;47.532;19.078;2022-07-29T07:10:03;10.73;;;2.97;;
62123;SDS011;48110;47.532;19.078;2022-07-29T07:13:06;6.72;;;2.78;;
62123;SDS011;48110;47.532;19.078;2022-07-29T07:16:09;5.05;;;2.75;;
62123;SDS011;48110;47.532;19.078;2022-07-29T07:19:13;6.37;;;3.03;;
62123;SDS011;48110;47.532;19.078;2022-07-29T07:22:15;4.12;;;2.70;;
62123;SDS011;48110;47.532;19.078;2022-07-29T07:25:18;3.85;;;2.58;;
62123;SDS011;48110;47.532;19.078;2022-07-29T07:28:21;5.95;;;2.60;;
62123;SDS011;48110;47.532;19.078;2022-07-29T07:31:26;4.05;;;2.60;;
62123;SDS011;48110;47.532;19.078;2022-07-29T07:34:29;4.90;;;2.50;;
62123;SDS011;48110;47.532;19.078;2022-07-29T07:37:32;6.75;;;3.90;;
62123;SDS011;48110;47.532;19.078;2022-07-29T07:40:35;4.85;;;2.80;;
62123;SDS011;48110;47.532;19.078;2022-07-29T07:43:39;4.30;;;2.33;;
62123;SDS011;48110;47.532;19.078;2022-07-29T07:46:42;6.05;;;2.83;;
62123;SDS011;48110;47.532;19.078;2022-07-29T07:49:47;4.22;;;2.50;;
62123;SDS011;48110;47.532;19.078;2022-07-29T07:52:50;3.50;;;2.20;;
62123;SDS011;48110;47.532;19.078;2022-07-29T07:55:55;7.32;;;2.65;;
62123;SDS011;48110;47.532;19.078;2022-07-29T07:59:14;4.25;;;2.45;;
62123;SDS011;48110;47.532;19.078;2022-07-29T08:02:17;3.72;;;2.22;;
62123;SDS011;48110;47.532;19.078;2022-07-29T08:05:20;13.93;;;2.95;;
62123;SDS011;48110;47.532;19.078;2022-07-29T08:08:22;6.25;;;2.45;;
62123;SDS011;48110;47.532;19.078;2022-07-29T08:11:26;4.85;;;2.47;;
62123;SDS011;48110;47.532;19.078;2022-07-29T08:14:29;3.92;;;2.30;;
62123;SDS011;48110;47.532;19.078;2022-07-29T08:17:33;4.18;;;2.58;;
62123;SDS011;48110;47.532;19.078;2022-07-29T08:20:37;6.65;;;2.33;;
62123;SDS011;48110;47.532;19.078;2022-07-29T08:23:41;3.83;;;2.10;;
62123;SDS011;48110;47.532;19.078;2022-07-29T08:26:59;6.40;;;2.40;;
62123;SDS011;48110;47.532;19.078;2022-07-29T08:30:03;3.95;;;2.50;;
62123;SDS011;48110;47.532;19.078;2022-07-29T08:33:06;4.72;;;2.35;;
62123;SDS011;48110;47.532;19.078;2022-07-29T08:36:09;5.95;;;2.20;;
62123;SDS011;48110;47.532;19.078;2022-07-29T08:39:12;5.55;;;2.55;;
62123;SDS011;48110;47.532;19.078;2022-07-29T08:42:15;4.53;;;2.05;;
62123;SDS011;48110;47.532;19.078;2022-07-29T08:45:19;3.45;;;2.20;;
62123;SDS011;48110;47.532;19.078;2022-07-29T08:48:24;5.75;;;2.20;;
62123;SDS011;48110;47.532;19.078;2022-07-29T08:51:27;3.08;;;2.17;;
62123;SDS011;48110;47.532;19.078;2022-07-29T08:54:30;7.60;;;2.50;;
62123;SDS011;48110;47.532;19.078;2022-07-29T08:57:35;8.13;;;2.33;;
62123;SDS011;48110;47.532;19.078;2022-07-29T09:00:41;7.53;;;2.30;;
62123;SDS011;48110;47.532;19.078;2022-07-29T09:03:46;3.58;;;2.10;;
62123;SDS011;48110;47.532;19.078;2022-07-29T09:06:51;9.75;;;2.40;;
62123;SDS011;48110;47.532;19.078;2022-07-29T09:09:56;6.50;;;2.40;;
62123;SDS011;48110;47.532;19.078;2022-07-29T09:12:59;3.67;;;2.40;;
62123;SDS011;48110;47.532;19.078;2022-07-29T09:16:02;3.85;;;2.45;;
62123;SDS011;48110;47.532;19.078;2022-07-29T09:19:19;4.75;;;2.42;;
62123;SDS011;48110;47.532;19.078;2022-07-29T09:22:29;4.75;;;2.30;;
62123;SDS011;48110;47.532;19.078;2022-07-29T09:25:41;7.57;;;2.30;;
62123;SDS011;48110;47.532;19.078;2022-07-29T09:28:44;3.37;;;2.10;;
62123;SDS011;48110;47.532;19.078;2022-07-29T09:31:48;5.53;;;2.20;;
62123;SDS011;48110;47.532;19.078;2022-07-29T09:35:13;2.95;;;2.20;;
62123;SDS011;48110;47.532;19.078;2022-07-29T09:38:21;3.75;;;2.22;;
62123;SDS011;48110;47.532;19.078;2022-07-29T09:41:24;3.47;;;2.05;;
62123;SDS011;48110;47.532;19.078;2022-07-29T09:44:40;4.18;;;2.30;;
62123;SDS011;48110;47.532;19.078;2022-07-29T09:47:46;4.80;;;2.22;;
62123;SDS011;48110;47.532;19.078;2022-07-29T09:50:51;7.95;;;2.03;;
62123;SDS011;48110;47.532;19.078;2022-07-29T09:53:54;2.62;;;1.83;;
62123;SDS011;48110;47.532;19.078;2022-07-29T09:56:57;4.60;;;2.00;;
62123;SDS011;48110;47.532;19.078;2022-07-29T10:00:07;5.03;;;1.80;;
62123;SDS011;48110;47.532;19.078;2022-07-29T10:03:13;3.42;;;1.70;;
62123;SDS011;48110;47.532;19.078;2022-07-29T10:06:18;2.90;;;1.77;;
62123;SDS011;48110;47.532;19.078;2022-07-29T10:09:21;4.30;;;1.62;;
62123;SDS011;48110;47.532;19.078;2022-07-29T10:12:24;3.55;;;1.80;;
62123;SDS011;48110;47.532;19.078;2022-07-29T10:15:28;5.35;;;1.77;;
62123;SDS011;48110;47.532;19.078;2022-07-29T10:18:33;4.82;;;2.10;;
62123;SDS011;48110;47.532;19.078;2022-07-29T10:21:36;3.55;;;1.90;;
62123;SDS011;48110;47.532;19.078;2022-07-29T10:24:45;5.30;;;2.15;;
62123;SDS011;48110;47.532;19.078;2022-07-29T10:27:48;6.35;;;1.87;;
62123;SDS011;48110;47.532;19.078;2022-07-29T10:30:58;8.57;;;1.98;;
62123;SDS011;48110;47.532;19.078;2022-07-29T10:34:07;3.42;;;1.75;;
62123;SDS011;48110;47.532;19.078;2022-07-29T10:44:00;4.57;;;1.70;;
62123;SDS011;48110;47.532;19.078;2022-07-29T10:47:24;6.30;;;2.50;;
62123;SDS011;48110;47.532;19.078;2022-07-29T10:50:32;5.05;;;1.70;;
62123;SDS011;48110;47.532;19.078;2022-07-29T10:53:56;2.83;;;2.03;;
62123;SDS011;48110;47.532;19.078;2022-07-29T11:17:01;2.25;;;1.70;;
62123;SDS011;48110;47.532;19.078;2022-07-29T11:23:38;1.87;;;1.70;;
62123;SDS011;48110;47.532;19.078;2022-07-29T11:26:44;3.58;;;1.60;;
62123;SDS011;48110;47.532;19.078;2022-07-29T11:29:51;2.37;;;1.42;;
62123;SDS011;48110;47.532;19.078;2022-07-29T11:32:59;4.95;;;1.58;;
62123;SDS011;48110;47.532;19.078;2022-07-29T11:39:25;3.62;;;1.92;;
62123;SDS011;48110;47.532;19.078;2022-07-29T11:42:39;4.55;;;1.98;;
62123;SDS011;48110;47.532;19.078;2022-07-29T11:48:48;2.08;;;1.55;;
62123;SDS011;48110;47.532;19.078;2022-07-29T11:51:54;3.55;;;1.65;;
62123;SDS011;48110;47.532;19.078;2022-07-29T11:55:00;3.42;;;1.70;;
62123;SDS011;48110;47.532;19.078;2022-07-29T11:58:11;4.12;;;1.60;;
62123;SDS011;48110;47.532;19.078;2022-07-29T12:01:16;7.10;;;1.67;;
62123;SDS011;48110;47.532;19.078;2022-07-29T12:04:20;6.72;;;1.40;;
62123;SDS011;48110;47.532;19.078;2022-07-29T12:07:29;3.28;;;1.65;;
62123;SDS011;48110;47.532;19.078;2022-07-29T12:10:36;4.65;;;1.60;;
62123;SDS011;48110;47.532;19.078;2022-07-29T12:13:40;2.33;;;1.85;;
62123;SDS011;48110;47.532;19.078;2022-07-29T12:16:43;3.60;;;1.62;;
62123;SDS011;48110;47.532;19.078;2022-07-29T12:19:45;3.55;;;1.80;;
62123;SDS011;48110;47.532;19.078;2022-07-29T12:22:52;2.35;;;1.50;;
62123;SDS011;48110;47.532;19.078;2022-07-29T12:25:57;2.72;;;1.70;;
62123;SDS011;48110;47.532;19.078;2022-07-29T12:29:00;1.60;;;1.50;;
62123;SDS011;48110;47.532;19.078;2022-07-29T12:32:04;4.87;;;1.70;;
62123;SDS011;48110;47.532;19.078;2022-07-29T12:35:19;1.92;;;1.40;;
62123;SDS011;48110;47.532;19.078;2022-07-29T12:41:27;4.03;;;1.60;;
62123;SDS011;48110;47.532;19.078;2022-07-29T12:44:47;3.90;;;1.70;;
62123;SDS011;48110;47.532;19.078;2022-07-29T12:47:51;2.05;;;1.33;;
62123;SDS011;48110;47.532;19.078;2022-07-29T12:50:58;2.53;;;1.75;;
62123;SDS011;48110;47.532;19.078;2022-07-29T12:54:07;5.90;;;1.92;;
62123;SDS011;48110;47.532;19.078;2022-07-29T12:57:12;5.20;;;1.60;;
62123;SDS011;48110;47.532;19.078;2022-07-29T13:00:23;1.92;;;1.40;;
62123;SDS011;48110;47.532;19.078;2022-07-29T13:03:26;3.00;;;1.67;;
62123;SDS011;48110;47.532;19.078;2022-07-29T13:06:39;2.08;;;1.35;;
62123;SDS011;48110;47.532;19.078;2022-07-29T13:09:49;4.25;;;1.52;;
62123;SDS011;48110;47.532;19.078;2022-07-29T13:13:05;3.45;;;1.37;;
62123;SDS011;48110;47.532;19.078;2022-07-29T13:16:08;2.65;;;1.70;;
62123;SDS011;48110;47.532;19.078;2022-07-29T13:19:14;3.50;;;1.40;;
62123;SDS011;48110;47.532;19.078;2022-07-29T13:22:17;2.00;;;1.50;;
62123;SDS011;48110;47.532;19.078;2022-07-29T13:25:28;2.80;;;2.47;;
62123;SDS011;48110;47.532;19.078;2022-07-29T13:28:33;3.85;;;1.77;;
62123;SDS011;48110;47.532;19.078;2022-07-29T13:31:36;3.35;;;1.58;;
62123;SDS011;48110;47.532;19.078;2022-07-29T13:34:39;2.90;;;1.87;;
62123;SDS011;48110;47.532;19.078;2022-07-29T13:37:43;2.05;;;1.45;;
62123;SDS011;48110;47.532;19.078;2022-07-29T13:40:45;2.70;;;1.52;;
62123;SDS011;48110;47.532;19.078;2022-07-29T13:43:48;2.08;;;1.55;;
62123;SDS011;48110;47.532;19.078;2022-07-29T13:46:51;3.40;;;1.80;;
62123;SDS011;48110;47.532;19.078;2022-07-29T13:49:54;3.83;;;1.90;;
62123;SDS011;48110;47.532;19.078;2022-07-29T13:52:57;5.28;;;1.60;;
62123;SDS011;48110;47.532;19.078;2022-07-29T13:56:00;4.53;;;1.60;;
62123;SDS011;48110;47.532;19.078;2022-07-29T13:59:02;2.80;;;1.62;;
62123;SDS011;48110;47.532;19.078;2022-07-29T14:02:06;2.80;;;1.60;;
62123;SDS011;48110;47.532;19.078;2022-07-29T14:05:09;3.58;;;1.77;;
62123;SDS011;48110;47.532;19.078;2022-07-29T14:08:12;3.72;;;1.73;;
62123;SDS011;48110;47.532;19.078;2022-07-29T14:11:15;5.12;;;2.30;;
62123;SDS011;48110;47.532;19.078;2022-07-29T14:14:17;5.47;;;1.87;;
62123;SDS011;48110;47.532;19.078;2022-07-29T14:17:21;3.97;;;1.75;;
62123;SDS011;48110;47.532;19.078;2022-07-29T14:20:25;2.92;;;1.85;;
62123;SDS011;48110;47.532;19.078;2022-07-29T14:23:28;1.60;;;1.50;;
62123;SDS011;48110;47.532;19.078;2022-07-29T14:26:31;2.25;;;1.58;;
62123;SDS011;48110;47.532;19.078;2022-07-29T14:29:34;2.22;;;1.50;;
62123;SDS011;48110;47.532;19.078;2022-07-29T14:32:39;4.57;;;1.77;;
62123;SDS011;48110;47.532;19.078;2022-07-29T14:35:42;2.00;;;1.60;;
62123;SDS011;48110;47.532;19.078;2022-07-29T14:38:45;5.22;;;1.98;;
62123;SDS011;48110;47.532;19.078;2022-07-29T14:41:49;2.42;;;1.62;;
62123;SDS011;48110;47.532;19.078;2022-07-29T14:44:53;5.50;;;1.92;;
62123;SDS011;48110;47.532;19.078;2022-07-29T14:47:56;3.37;;;1.80;;
62123;SDS011;48110;47.532;19.078;2022-07-29T14:50:59;6.50;;;1.90;;
62123;SDS011;48110;47.532;19.078;2022-07-29T14:54:06;5.75;;;1.87;;
62123;SDS011;48110;47.532;19.078;2022-07-29T14:57:09;2.45;;;1.87;;
62123;SDS011;48110;47.532;19.078;2022-07-29T15:00:13;5.22;;;1.98;;
62123;SDS011;48110;47.532;19.078;2022-07-29T15:03:16;2.50;;;1.85;;
62123;SDS011;48110;47.532;19.078;2022-07-29T15:06:26;5.03;;;1.73;;
62123;SDS011;48110;47.532;19.078;2022-07-29T15:09:28;2.85;;;1.95;;
62123;SDS011;48110;47.532;19.078;2022-07-29T15:12:31;4.80;;;1.75;;
62123;SDS011;48110;47.532;19.078;2022-07-29T15:15:35;4.90;;;1.80;;
62123;SDS011;48110;47.532;19.078;2022-07-29T15:18:37;3.42;;;1.75;;
62123;SDS011;48110;47.532;19.078;2022-07-29T15:21:40;3.62;;;2.10;;
62123;SDS011;48110;47.532;19.078;2022-07-29T15:24:49;6.45;;;2.12;;
62123;SDS011;48110;47.532;19.078;2022-07-29T15:27:52;3.12;;;2.10;;
62123;SDS011;48110;47.532;19.078;2022-07-29T15:31:00;2.25;;;1.70;;
62123;SDS011;48110;47.532;19.078;2022-07-29T15:34:03;6.32;;;1.70;;
62123;SDS011;48110;47.532;19.078;2022-07-29T15:37:07;3.67;;;1.85;;
62123;SDS011;48110;47.532;19.078;2022-07-29T15:40:10;3.70;;;1.95;;
62123;SDS011;48110;47.532;19.078;2022-07-29T15:43:13;2.62;;;2.00;;
62123;SDS011;48110;47.532;19.078;2022-07-29T15:46:16;4.68;;;1.90;;
62123;SDS011;48110;47.532;19.078;2022-07-29T15:49:39;3.37;;;1.80;;
62123;SDS011;48110;47.532;19.078;2022-07-29T15:52:50;13.10;;;2.37;;
62123;SDS011;48110;47.532;19.078;2022-07-29T15:55:53;3.78;;;2.22;;
62123;SDS011;48110;47.532;19.078;2022-07-29T15:58:58;3.58;;;2.00;;
62123;SDS011;48110;47.532;19.078;2022-07-29T16:02:02;3.78;;;2.10;;
62123;SDS011;48110;47.532;19.078;2022-07-29T16:05:06;5.15;;;1.98;;
62123;SDS011;48110;47.532;19.078;2022-07-29T16:08:10;3.20;;;1.90;;
62123;SDS011;48110;47.532;19.078;2022-07-29T16:11:13;2.85;;;2.15;;
62123;SDS011;48110;47.532;19.078;2022-07-29T16:14:16;11.98;;;2.62;;
62123;SDS011;48110;47.532;19.078;2022-07-29T16:17:19;4.40;;;2.28;;
62123;SDS011;48110;47.532;19.078;2022-07-29T16:20:22;3.42;;;1.95;;
62123;SDS011;48110;47.532;19.078;2022-07-29T16:23:25;4.62;;;2.00;;
62123;SDS011;48110;47.532;19.078;2022-07-29T16:26:28;3.47;;;2.37;;
62123;SDS011;48110;47.532;19.078;2022-07-29T16:29:31;4.10;;;2.12;;
62123;SDS011;48110;47.532;19.078;2022-07-29T16:32:33;4.90;;;2.25;;
62123;SDS011;48110;47.532;19.078;2022-07-29T16:35:36;5.93;;;2.40;;
62123;SDS011;48110;47.532;19.078;2022-07-29T16:38:41;4.40;;;2.03;;
62123;SDS011;48110;47.532;19.078;2022-07-29T16:41:48;4.12;;;2.08;;
62123;SDS011;48110;47.532;19.078;2022-07-29T16:44:51;4.18;;;2.40;;
62123;SDS011;48110;47.532;19.078;2022-07-29T16:47:54;5.95;;;2.40;;
62123;SDS011;48110;47.532;19.078;2022-07-29T16:51:02;4.45;;;2.15;;
62123;SDS011;48110;47.532;19.078;2022-07-29T16:54:04;5.10;;;2.20;;
62123;SDS011;48110;47.532;19.078;2022-07-29T16:57:07;4.68;;;2.00;;
62123;SDS011;48110;47.532;19.078;2022-07-29T17:00:10;2.95;;;2.05;;
62123;SDS011;48110;47.532;19.078;2022-07-29T17:03:14;4.87;;;2.60;;
62123;SDS011;48110;47.532;19.078;2022-07-29T17:06:17;9.10;;;2.50;;
62123;SDS011;48110;47.532;19.078;2022-07-29T17:09:19;3.85;;;2.40;;
62123;SDS011;48110;47.532;19.078;2022-07-29T17:12:23;3.72;;;2.08;;
62123;SDS011;48110;47.532;19.078;2022-07-29T17:15:25;6.05;;;2.25;;
62123;SDS011;48110;47.532;19.078;2022-07-29T17:18:30;5.55;;;2.42;;
62123;SDS011;48110;47.532;19.078;2022-07-29T17:21:33;6.43;;;1.95;;
62123;SDS011;48110;47.532;19.078;2022-07-29T17:24:36;2.17;;;1.98;;
62123;SDS011;48110;47.532;19.078;2022-07-29T17:27:39;10.52;;;2.22;;
62123;SDS011;48110;47.532;19.078;2022-07-29T17:30:43;5.07;;;2.33;;
62123;SDS011;48110;47.532;19.078;2022-07-29T17:33:46;3.35;;;2.00;;
62123;SDS011;48110;47.532;19.078;2022-07-29T17:36:49;10.90;;;2.50;;
62123;SDS011;48110;47.532;19.078;2022-07-29T17:39:51;5.93;;;2.20;;
62123;SDS011;48110;47.532;19.078;2022-07-29T17:43:01;7.40;;;2.47;;
62123;SDS011;48110;47.532;19.078;2022-07-29T17:46:06;4.82;;;2.42;;
62123;SDS011;48110;47.532;19.078;2022-07-29T17:49:10;3.47;;;2.10;;
62123;SDS011;48110;47.532;19.078;2022-07-29T17:52:13;8.77;;;2.45;;
62123;SDS011;48110;47.532;19.078;2022-07-29T17:55:17;11.07;;;2.47;;
62123;SDS011;48110;47.532;19.078;2022-07-29T17:58:20;10.55;;;2.95;;
62123;SDS011;48110;47.532;19.078;2022-07-29T18:01:23;5.50;;;2.35;;
62123;SDS011;48110;47.532;19.078;2022-07-29T18:04:26;4.30;;;2.47;;
62123;SDS011;48110;47.532;19.078;2022-07-29T18:07:29;3.22;;;2.20;;
62123;SDS011;48110;47.532;19.078;2022-07-29T18:10:32;4.18;;;2.30;;
62123;SDS011;48110;47.532;19.078;2022-07-29T18:13:35;4.28;;;2.70;;
62123;SDS011;48110;47.532;19.078;2022-07-29T18:16:38;4.05;;;2.35;;
62123;SDS011;48110;47.532;19.078;2022-07-29T18:19:40;4.10;;;2.20;;
62123;SDS011;48110;47.532;19.078;2022-07-29T18:22:43;3.45;;;2.37;;
62123;SDS011;48110;47.532;19.078;2022-07-29T18:25:46;5.97;;;2.55;;
62123;SDS011;48110;47.532;19.078;2022-07-29T18:28:49;6.87;;;2.50;;
62123;SDS011;48110;47.532;19.078;2022-07-29T18:31:53;9.60;;;2.80;;
62123;SDS011;48110;47.532;19.078;2022-07-29T18:34:56;3.95;;;2.33;;
62123;SDS011;48110;47.532;19.078;2022-07-29T18:37:59;3.60;;;2.58;;
62123;SDS011;48110;47.532;19.078;2022-07-29T18:41:04;4.45;;;2.53;;
62123;SDS011;48110;47.532;19.078;2022-07-29T18:44:07;3.30;;;2.40;;
62123;SDS011;48110;47.532;19.078;2022-07-29T18:47:11;3.10;;;2.35;;
62123;SDS011;48110;47.532;19.078;2022-07-29T18:50:21;16.12;;;2.72;;
62123;SDS011;48110;47.532;19.078;2022-07-29T18:56:37;5.87;;;2.90;;
62123;SDS011;48110;47.532;19.078;2022-07-29T18:59:40;5.22;;;2.28;;
62123;SDS011;48110;47.532;19.078;2022-07-29T19:02:44;4.20;;;2.62;;
62123;SDS011;48110;47.532;19.078;2022-07-29T19:05:47;4.43;;;2.53;;
62123;SDS011;48110;47.532;19.078;2022-07-29T19:08:50;5.07;;;2.65;;
62123;SDS011;48110;47.532;19.078;2022-07-29T19:11:54;4.72;;;2.20;;